Aérodrome :
LOGIN :

S'inscrire | Disclaimer

   EN    FR    IT 

 










Légende :    VFR   VFR Marginal   IFR   IFR Intensif   IFR Très Intensif
Visi : 
Plafond : 
>= 8 km
>= 3000ft
5 à 8 km
1000 à 3000 ft
1500m à 5 km
500 à 1000 ft
800 à 1500m
200 à 500 ft
< 800m
< 200 ft
Symboles :   Orages  Brouillard  Fortes neiges  Fortes précipitations  Vent > 20 kt
SIGMETs :   Divers  Orages  Givrage  Turbulence  Onde Orograph.  Cendres Volcan.






- Altitude de l'aérodrome : 141 ft
- Code IATA : SKS


EKSP - Srydstrup Vojens

DERNIER METAR :
  • 092150Z 33004KT 9999 FEW039 SCT200 10/08 Q1011

METARs EXPIRÉS :
  • 092120Z 33004KT 300V360 9999 FEW039 BKN200 11/08 Q1011
  • 092050Z 32004KT 9999 FEW039 SCT200 11/08 Q1011
  • 092020Z 31004KT 9999 FEW039 SCT200 12/08 Q1011
  • 091950Z 32006KT 9999 FEW039 SCT200 13/08 Q1011
  • 091920Z 32007KT 9999 FEW039 SCT200 14/08 Q1011

TAF TAF EKSP
Valide du 09 à 21h jusqu'au 10 à 21h UTC


092024Z 0921/1021 VRB05KT 9999 SCT040 BKN100
BECMG 1009/1012 30010KT
TEMPO 1012/1018 30012G22KT
TEMPO 1018/1021 -SHRA SCT020TCU



MET'MAP, la Météo Aéronautique d'un coup d'oeil ! - Copyright ORBIFLY Décembre 2007 - Disclaimer

ORBIFLY MET'MAP TEAM :

Programmation & Développement : Alexandra Zaïnal
Sur une idée originale de : Baudouin d'Aumeries
Assistance à la programmation : Marc-Olivier Méhu
Soutien technique & logistique : Manuel Goepfert

Contact : metmap@orbifly.com




SOURCES & CREDITS :

   NOAA